Terminal Aerodrome Forecast
Issued by NWS

Home | Current Version | Previous Version | Text Only | Print | Product List | Glossary On
Versions: 1 2 3 4 5 6 7 8 9 10 11 12 13 14
441
FTUS46 KPDT 242320
TAFDLS
TAF
KDLS 242320Z 2500/2524 VRB05KT P6SM VCSH BKN050 OVC120
     FM250300 07007KT P6SM SCT080 BKN140
     FM250900 07005KT 6SM BR BKN015
     FM251500 VRB04KT P6SM SCT015 SCT180
     FM251800 VRB04KT P6SM BKN180=

USA.gov is the U.S. government's official web portal to all federal, state and local government web resources and services.